Penza, Russia
Current Conditions -  °F | °C
As of 12:30 AM on Tuesday 21 Oct 2014 (Local Time) from UWSS Reporting Station
Overcast Overcast  
Wind Chill: 34°   Ceiling: 1600
Heat Index: 41°   Visibility: 6mi
Dew Point: 37°   Wind: 11mph
Humidity: 87%   Direction: 240°WSW
Pressure: 29.5"   Gusts: 18mph
Location:  53.2°N, 45°E
Report Text: UWSS 202130Z 24005G08MPS 9999 OVC016 05/03 Q0999 1229//55 NOSIGQFE737
Loading
Personal Weather Stations






























Interactive Weather Map
Tropical Storm Tracking
New forecast layout! Learn more

10-Day Weather Forecast

Advertisements
Track Severe Weather on mobile